Aérodrome :
LOGIN :

S'inscrire | Disclaimer

   EN    FR    IT 

 










Légende :    VFR   VFR Marginal   IFR   IFR Intensif   IFR Très Intensif
Visi : 
Plafond : 
>= 8 km
>= 3000ft
5 à 8 km
1000 à 3000 ft
1500m à 5 km
500 à 1000 ft
800 à 1500m
200 à 500 ft
< 800m
< 200 ft
Symboles :   Orages  Brouillard  Fortes neiges  Fortes précipitations  Vent > 20 kt
SIGMETs :   Divers  Orages  Givrage  Turbulence  Onde Orograph.  Cendres Volcan.






- Altitude de l'aérodrome : 390 ft
- Code IATA : NQY


EGHQ - Newquay

DERNIER METAR :
  • 151450Z 21018G28KT 9999 -SHRAGS FEW024 FEW034CB 09/05 Q0995

METARs EXPIRÉS :
  • 151420Z 21021G31KT 9999 VCSH SCT018 FEW034CB 09/05 Q0995
  • 151350Z 23016KT 200V260 9999 VCSH SCT022CB 08/04 Q0995
  • 151320Z 20021G32KT 9999 -SHRA FEW024CB SCT030 08/04 Q0996
  • 151250Z 21017G27KT 9999 VCTS SCT042CB 09/05 Q0996
  • 151220Z 22018KT 9999 VCSH FEW042CB 09/04 Q0996
  • 151150Z 22019KT 9999 FEW040CB 09/04 Q0996

TAF TAF EGHQ
Valide du 15 à 15h jusqu'au 16 à 00h UTC


151359Z 1515/1524 20015G25KT 9999 SCT035
TEMPO 1515/1524 7000 SHRA BKN014
PROB40
TEMPO 1515/1524 2000 +SHRAGS BKN009 BKN012CB



MET'MAP, la Météo Aéronautique d'un coup d'oeil ! - Copyright ORBIFLY Décembre 2007 - Disclaimer

ORBIFLY MET'MAP TEAM :

Programmation & Développement : Alexandra Zaïnal
Sur une idée originale de : Baudouin d'Aumeries
Assistance à la programmation : Marc-Olivier Méhu
Soutien technique & logistique : Manuel Goepfert

Contact : metmap@orbifly.com




SOURCES & CREDITS :

   NOAA